Time;durP1;ratioP1;P1;durP2;ratioP2;P2;SDS_P1;SDS_P2;PMS_P1;PMS_P2;Temp;Humidity;BMP_temperature;BMP_pressure;BME280_temperature;BME280_humidity;BME280_pressure;Samples;Min_cycle;Max_cycle;Signal;HPM_P1;HPM_P2
2021/12/13 00:00:59;;;;;;;9.00;2.70;;;;;;;12.57;76.02;102523.63;4985885;28;20127;-60
2021/12/13 00:03:28;;;;;;;9.55;3.53;;;;;;;12.55;75.73;102527.06;4990231;28;20056;-62
2021/12/13 00:05:59;;;;;;;8.90;2.72;;;;;;;12.44;75.66;102523.22;5003519;28;20064;-60
2021/12/13 00:08:31;;;;;;;8.32;3.30;;;;;;;12.32;76.01;102525.44;5020723;28;20044;-59
2021/12/13 00:11:02;;;;;;;10.27;3.50;;;;;;;12.24;76.42;102533.03;5016536;28;20845;-60
2021/12/13 00:13:39;;;;;;;8.27;3.25;;;;;;;12.20;76.18;102523.28;5025683;28;20151;-60
2021/12/13 00:16:06;;;;;;;8.95;3.42;;;;;;;12.21;76.61;102530.28;5022036;28;20040;-59
2021/12/13 00:18:37;;;;;;;9.02;2.92;;;;;;;12.22;76.66;102528.56;5002092;28;20056;-61
2021/12/13 00:21:15;;;;;;;12.25;3.42;;;;;;;12.20;76.46;102524.19;5019365;28;20045;-60
2021/12/13 00:23:56;;;;;;;7.82;3.20;;;;;;;12.27;76.46;102521.75;5003570;28;20080;-60
2021/12/13 00:26:34;;;;;;;8.63;3.22;;;;;;;12.22;76.33;102524.22;5006700;28;20068;-59
2021/12/13 00:29:22;;;;;;;9.48;2.83;;;;;;;12.26;76.18;102527.84;5022144;28;20629;-59
2021/12/13 00:31:53;;;;;;;6.43;2.83;;;;;;;12.22;76.15;102525.97;5013095;28;20182;-60
2021/12/13 00:34:28;;;;;;;9.25;3.10;;;;;;;12.16;76.11;102522.31;5020341;28;20824;-60
2021/12/13 00:37:07;;;;;;;6.97;3.22;;;;;;;12.16;76.33;102524.03;5023574;28;20064;-60
2021/12/13 00:39:46;;;;;;;10.43;3.15;;;;;;;12.18;76.16;102525.88;5017714;28;20575;-61
2021/12/13 00:42:12;;;;;;;9.95;3.13;;;;;;;12.15;76.45;102528.38;5020445;28;20037;-60
2021/12/13 00:44:45;;;;;;;8.45;2.70;;;;;;;12.16;76.19;102531.88;5019159;28;20048;-61
2021/12/13 00:47:18;;;;;;;8.13;3.05;;;;;;;12.07;75.87;102534.19;5016590;28;20110;-61
2021/12/13 00:49:47;;;;;;;8.38;2.78;;;;;;;11.92;75.67;102531.94;5002883;28;20666;-60
2021/12/13 00:52:18;;;;;;;6.70;2.92;;;;;;;11.88;75.82;102534.41;5018903;28;20044;-60
2021/12/13 00:54:44;;;;;;;10.75;2.78;;;;;;;11.92;76.52;102533.66;5006020;28;20163;-61
2021/12/13 00:57:28;;;;;;;8.43;3.03;;;;;;;11.96;76.48;102536.44;5021844;28;21306;-60
2021/12/13 01:00:03;;;;;;;8.70;2.60;;;;;;;11.99;76.49;102539.16;5015504;28;20145;-61
2021/12/13 01:02:44;;;;;;;8.68;2.63;;;;;;;12.02;76.64;102534.03;5017086;28;20529;-60
2021/12/13 01:05:16;;;;;;;7.88;2.55;;;;;;;12.11;76.41;102538.69;5000777;28;20041;-60
2021/12/13 01:08:02;;;;;;;7.45;2.50;;;;;;;12.12;76.31;102553.53;4985328;28;20118;-60
2021/12/13 01:10:53;;;;;;;6.65;2.65;;;;;;;12.17;76.44;102558.09;5014969;28;20389;-59
2021/12/13 01:13:30;;;;;;;8.20;2.50;;;;;;;12.21;76.27;102556.44;5015560;28;20482;-59
2021/12/13 01:16:10;;;;;;;6.68;2.25;;;;;;;12.24;76.20;102551.34;5018794;28;20044;-61
2021/12/13 01:21:58;;;;;;;7.43;2.40;;;;;;;12.25;75.67;102549.63;4929902;28;20434;-60
2021/12/13 01:25:02;;;;;;;5.07;1.92;;;;;;;12.24;75.50;102547.81;5003855;28;20049;-60
2021/12/13 01:27:37;;;;;;;7.07;2.10;;;;;;;12.20;75.29;102552.03;5021978;28;20037;-61
2021/12/13 01:30:09;;;;;;;8.05;2.60;;;;;;;12.20;75.55;102549.44;5019982;28;20045;-60
2021/12/13 01:32:38;;;;;;;6.28;2.30;;;;;;;12.29;75.47;102557.59;5004091;28;20037;-60
2021/12/13 01:35:04;;;;;;;4.65;2.00;;;;;;;12.29;75.41;102551.47;4999315;28;20401;-60
2021/12/13 01:37:39;;;;;;;5.53;2.13;;;;;;;12.28;75.15;102555.81;5016332;28;20235;-60
2021/12/13 01:40:10;;;;;;;5.85;2.20;;;;;;;12.28;75.09;102560.16;5008322;28;21076;-59
2021/12/13 01:42:36;;;;;;;8.48;2.60;;;;;;;12.28;75.05;102557.53;5022496;28;20045;-59
2021/12/13 01:45:14;;;;;;;9.15;2.20;;;;;;;12.25;74.97;102560.06;5011775;28;20043;-60
2021/12/13 01:47:43;;;;;;;6.10;2.88;;;;;;;12.26;74.84;102562.72;5013068;28;20297;-60
2021/12/13 01:50:25;;;;;;;5.93;2.88;;;;;;;12.27;74.76;102561.00;5013789;28;20467;-61
2021/12/13 01:52:53;;;;;;;7.57;2.85;;;;;;;12.28;74.73;102565.38;5005135;28;20040;-60
2021/12/13 01:55:33;;;;;;;7.43;3.00;;;;;;;12.25;74.60;102560.97;5014930;28;20747;-60
2021/12/13 01:58:20;;;;;;;6.80;3.28;;;;;;;12.24;74.49;102568.75;5019414;28;20049;-61
2021/12/13 02:01:09;;;;;;;6.55;3.20;;;;;;;12.26;74.80;102567.09;5009680;28;20604;-60
2021/12/13 02:04:05;;;;;;;7.20;3.35;;;;;;;12.21;74.74;102564.28;5004377;28;20073;-60
2021/12/13 02:06:49;;;;;;;6.00;3.13;;;;;;;12.22;74.76;102566.06;5009563;28;20044;-59
2021/12/13 02:09:20;;;;;;;9.27;3.63;;;;;;;12.23;74.65;102569.59;5017105;28;20041;-59
2021/12/13 02:11:48;;;;;;;7.78;3.22;;;;;;;12.24;74.73;102560.91;5015626;28;21201;-61
2021/12/13 02:14:17;;;;;;;7.90;3.47;;;;;;;12.26;74.28;102569.69;5014383;28;20041;-60
2021/12/13 02:17:08;;;;;;;6.15;3.47;;;;;;;12.27;74.35;102566.22;5017882;28;20518;-59
2021/12/13 02:19:42;;;;;;;9.25;3.70;;;;;;;12.25;74.25;102571.41;5009505;28;20120;-61
2021/12/13 02:22:30;;;;;;;7.20;3.70;;;;;;;12.28;74.48;102566.28;5019807;28;20496;-60
2021/12/13 02:25:04;;;;;;;5.38;3.47;;;;;;;12.26;74.32;102570.56;5011152;28;20449;-60
2021/12/13 02:27:31;;;;;;;;;;;;;;;12.24;74.34;102572.25;5006155;28;20037;-59
2021/12/13 02:30:00;;;;;;;10.27;3.83;;;;;;;12.25;74.26;102575.75;5012633;28;19998;-61
2021/12/13 02:32:28;;;;;;;6.80;4.20;;;;;;;12.23;74.22;102580.94;5021185;28;20045;-61
2021/12/13 02:34:57;;;;;;;8.82;4.55;;;;;;;12.19;74.78;102585.19;5025042;28;20041;-60
2021/12/13 02:37:25;;;;;;;9.30;4.75;;;;;;;12.26;74.41;102575.78;4993858;28;20517;-60
2021/12/13 02:39:58;;;;;;;9.50;4.75;;;;;;;12.23;74.53;102577.44;5025882;28;20132;-61
2021/12/13 02:42:25;;;;;;;9.43;4.65;;;;;;;12.19;74.51;102566.00;5018328;28;20538;-60
2021/12/13 02:44:57;;;;;;;7.53;4.55;;;;;;;12.16;74.77;102572.00;5016557;28;20687;-60
2021/12/13 02:47:34;;;;;;;8.27;4.82;;;;;;;12.18;74.70;102569.44;5019950;28;20441;-60
2021/12/13 02:50:00;;;;;;;9.20;5.30;;;;;;;12.17;74.82;102572.88;5020388;28;20098;-61
2021/12/13 02:52:26;;;;;;;9.88;5.15;;;;;;;12.12;74.65;102577.97;5017742;28;20789;-60
2021/12/13 02:54:56;;;;;;;9.43;4.82;;;;;;;12.12;74.79;102566.63;5020144;28;20047;-61
2021/12/13 02:57:30;;;;;;;9.85;5.70;;;;;;;12.11;74.91;102573.56;5013001;28;20056;-59
2021/12/13 03:00:25;;;;;;;12.20;5.72;;;;;;;12.10;75.09;102569.16;5023623;28;20059;-61
2021/12/13 03:02:53;;;;;;;10.50;6.00;;;;;;;12.12;74.96;102566.63;5012555;28;20049;-60
2021/12/13 03:05:30;;;;;;;10.00;5.80;;;;;;;12.11;74.94;102572.66;5023096;28;20161;-60
2021/12/13 03:08:04;;;;;;;10.70;6.43;;;;;;;12.08;75.25;102568.22;5010858;28;20399;-62
2021/12/13 03:10:34;;;;;;;10.52;6.55;;;;;;;12.09;75.30;102569.09;5018988;28;20037;-59
2021/12/13 03:13:00;;;;;;;13.10;7.50;;;;;;;12.09;75.17;102562.16;5032309;28;20053;-60
2021/12/13 03:15:29;;;;;;;12.88;7.50;;;;;;;12.12;75.12;102562.28;5014950;28;20780;-61
2021/12/13 03:18:10;;;;;;;12.55;7.47;;;;;;;12.08;75.07;102556.88;5017081;28;20045;-60
2021/12/13 03:21:21;;;;;;;13.77;7.90;;;;;;;12.10;75.05;102555.19;5017440;28;20224;-60
2021/12/13 03:24:10;;;;;;;13.88;8.02;;;;;;;12.09;75.23;102548.19;4977983;28;20334;-60
2021/12/13 03:27:03;;;;;;;15.50;8.75;;;;;;;12.08;75.06;102551.63;5022630;28;20744;-60
2021/12/13 03:29:53;;;;;;;14.30;8.65;;;;;;;12.08;74.79;102552.53;5010796;28;20044;-60
2021/12/13 03:32:20;;;;;;;13.52;8.05;;;;;;;12.18;74.71;102556.34;5023869;28;20491;-60
2021/12/13 03:34:58;;;;;;;13.35;8.80;;;;;;;12.13;74.85;102560.56;5020534;28;20045;-61
2021/12/13 03:37:24;;;;;;;12.82;8.60;;;;;;;12.15;74.64;102564.97;4993108;28;20052;-60
2021/12/13 03:39:55;;;;;;;14.60;8.93;;;;;;;12.16;74.45;102566.75;5016710;28;20526;-60
2021/12/13 03:42:43;;;;;;;13.18;9.10;;;;;;;12.16;73.97;102563.25;5006431;28;20159;-60
2021/12/13 03:45:22;;;;;;;13.45;8.48;;;;;;;12.23;74.15;102551.28;5011268;28;20049;-60
2021/12/13 03:47:51;;;;;;;13.73;8.63;;;;;;;12.19;73.85;102553.81;5013182;28;20519;-60
2021/12/13 03:50:23;;;;;;;14.43;8.55;;;;;;;12.18;73.83;102553.75;5014210;28;20151;-60
2021/12/13 03:52:53;;;;;;;14.80;9.10;;;;;;;12.17;73.75;102545.00;5000167;28;20362;-60
2021/12/13 03:55:21;;;;;;;12.82;8.27;;;;;;;12.18;73.88;102557.25;5014836;28;20071;-60
2021/12/13 03:57:50;;;;;;;11.98;8.38;;;;;;;12.23;73.70;102549.56;4997234;28;20048;-59
2021/12/13 04:00:18;;;;;;;13.15;8.48;;;;;;;12.25;73.38;102554.84;5001416;28;20042;-60
2021/12/13 04:02:44;;;;;;;15.43;8.60;;;;;;;12.19;73.58;102553.81;5013790;28;20074;-60
2021/12/13 04:05:14;;;;;;;13.00;8.32;;;;;;;12.22;73.44;102554.72;5021690;28;20085;-59
2021/12/13 04:07:42;;;;;;;11.95;8.18;;;;;;;12.19;73.13;102543.34;5004334;28;20044;-60
2021/12/13 04:10:12;;;;;;;13.68;8.50;;;;;;;12.22;72.96;102549.50;5010958;28;20220;-62
2021/12/13 04:12:46;;;;;;;13.95;8.25;;;;;;;12.22;72.71;102542.53;5022783;28;20393;-59
2021/12/13 04:15:18;;;;;;;13.30;8.15;;;;;;;12.26;72.75;102548.78;5017973;28;20037;-60
2021/12/13 04:17:58;;;;;;;12.05;7.97;;;;;;;12.24;72.59;102539.97;4991419;28;20045;-60
2021/12/13 04:20:36;;;;;;;12.07;7.50;;;;;;;12.25;72.70;102547.00;5020787;28;20053;-60
2021/12/13 04:23:09;;;;;;;14.63;7.68;;;;;;;12.19;72.74;102551.19;5011250;28;20040;-59
2021/12/13 04:25:39;;;;;;;13.00;7.97;;;;;;;12.24;72.62;102548.72;5002447;28;20345;-59
2021/12/13 04:28:10;;;;;;;11.75;7.55;;;;;;;12.21;72.76;102553.81;5019409;28;20262;-60
2021/12/13 04:30:55;;;;;;;11.40;7.53;;;;;;;12.20;72.79;102552.03;4987144;28;20519;-60
2021/12/13 04:33:31;;;;;;;12.63;7.07;;;;;;;12.22;72.87;102554.72;5018070;28;20102;-60
2021/12/13 04:36:01;;;;;;;14.25;7.72;;;;;;;12.13;73.06;102552.72;4990469;28;20050;-61
2021/12/13 04:38:39;;;;;;;11.43;7.80;;;;;;;12.12;73.00;102550.94;4986370;28;20045;-62
2021/12/13 04:41:06;;;;;;;12.00;7.32;;;;;;;12.08;73.29;102554.25;5005053;28;20071;-60
2021/12/13 04:43:34;;;;;;;12.80;7.65;;;;;;;12.07;73.19;102550.78;5012435;28;20048;-60
2021/12/13 04:46:00;;;;;;;12.25;7.63;;;;;;;12.07;73.04;102553.41;4991698;28;20452;-60
2021/12/13 04:48:30;;;;;;;12.13;7.03;;;;;;;12.14;73.00;102555.34;5015765;28;20037;-59
2021/12/13 04:51:06;;;;;;;10.93;6.70;;;;;;;12.15;72.69;102551.91;5025181;28;20637;-60
2021/12/13 04:53:41;;;;;;;11.68;7.05;;;;;;;12.11;72.59;102549.13;5009231;28;20168;-61
2021/12/13 04:56:18;;;;;;;12.02;6.70;;;;;;;12.09;72.65;102546.47;5017452;28;20036;-60
2021/12/13 04:58:47;;;;;;;11.13;6.63;;;;;;;12.11;72.68;102552.66;5019473;28;20048;-59
2021/12/13 05:01:14;;;;;;;13.68;6.65;;;;;;;12.15;72.20;102548.41;4999452;28;20171;-60
2021/12/13 05:03:45;;;;;;;9.80;6.65;;;;;;;12.12;72.46;102550.94;5007204;28;20393;-60
2021/12/13 05:06:14;;;;;;;12.82;6.60;;;;;;;12.10;72.61;102557.81;5012081;28;20591;-60
2021/12/13 05:08:41;;;;;;;10.68;6.50;;;;;;;12.09;72.31;102561.25;5009138;28;20056;-59
2021/12/13 05:11:08;;;;;;;10.50;6.47;;;;;;;12.09;72.46;102556.03;5003998;28;20075;-60
2021/12/13 05:13:51;;;;;;;9.73;6.35;;;;;;;12.08;72.42;102565.59;4978530;28;20048;-59
2021/12/13 05:16:20;;;;;;;9.80;6.18;;;;;;;12.09;72.01;102562.16;5015578;28;20040;-60
2021/12/13 05:18:51;;;;;;;10.55;6.13;;;;;;;12.10;71.74;102563.03;4999033;28;20047;-60
2021/12/13 05:21:38;;;;;;;10.02;6.13;;;;;;;12.11;71.61;102560.50;4998856;28;20041;-60
2021/12/13 05:24:10;;;;;;;10.40;5.93;;;;;;;12.15;71.77;102564.09;5020502;28;20052;-60
2021/12/13 05:26:53;;;;;;;9.35;6.10;;;;;;;12.16;71.53;102564.16;5009501;28;20121;-60
2021/12/13 05:29:29;;;;;;;9.93;6.10;;;;;;;12.13;71.29;102557.94;5021079;28;20690;-60
2021/12/13 05:32:33;;;;;;;8.68;6.00;;;;;;;12.17;71.42;102565.03;5008179;28;20064;-60
2021/12/13 05:35:11;;;;;;;9.25;5.85;;;;;;;12.10;71.53;102563.03;5018663;28;20040;-60
2021/12/13 05:37:47;;;;;;;9.20;5.82;;;;;;;12.11;71.34;102559.59;4992564;28;20087;-59
2021/12/13 05:40:26;;;;;;;8.38;5.50;;;;;;;12.16;71.55;102568.47;5015644;28;20395;-60
2021/12/13 05:42:54;;;;;;;8.63;5.82;;;;;;;12.15;71.25;102567.59;4986046;28;20041;-60
2021/12/13 05:45:35;;;;;;;11.18;5.40;;;;;;;12.14;71.14;102560.56;5018836;28;20042;-60
2021/12/13 05:48:24;;;;;;;8.65;5.50;;;;;;;12.15;70.80;102557.13;5017569;28;20107;-61
2021/12/13 05:50:56;;;;;;;8.02;5.25;;;;;;;12.16;70.96;102560.63;5015598;28;20057;-59
2021/12/13 05:53:25;;;;;;;9.30;5.07;;;;;;;12.17;70.93;102570.25;5014891;28;20044;-57
2021/12/13 05:56:02;;;;;;;8.23;5.25;;;;;;;12.19;70.87;102572.09;5005618;28;20043;-59
2021/12/13 05:58:53;;;;;;;10.02;5.07;;;;;;;12.20;70.18;102567.75;4996594;28;20479;-60
2021/12/13 06:01:29;;;;;;;10.23;5.25;;;;;;;12.18;70.35;102577.28;5023735;28;20426;-59
2021/12/13 06:04:07;;;;;;;12.27;5.22;;;;;;;12.19;70.52;102573.84;5010967;28;20037;-60
2021/12/13 06:06:39;;;;;;;9.10;5.40;;;;;;;12.10;70.52;102571.78;5017087;28;20511;-61
2021/12/13 06:09:05;;;;;;;8.05;5.10;;;;;;;12.16;70.52;102564.16;5018600;28;20072;-59
2021/12/13 06:11:35;;;;;;;10.95;5.18;;;;;;;12.14;70.59;102572.75;5006960;28;20063;-59
2021/12/13 06:14:20;;;;;;;10.18;5.43;;;;;;;12.12;70.61;102567.50;5021537;28;20476;-62
2021/12/13 06:16:54;;;;;;;12.48;5.35;;;;;;;12.15;70.13;102569.31;5006165;28;20714;-59
2021/12/13 06:19:28;;;;;;;10.18;5.15;;;;;;;12.15;70.18;102575.44;5012406;28;20056;-60
2021/12/13 06:22:02;;;;;;;8.73;5.10;;;;;;;12.18;70.12;102577.28;5015814;28;20586;-59
2021/12/13 06:24:50;;;;;;;10.02;4.95;;;;;;;12.17;70.04;102578.09;4999904;28;20036;-60
2021/12/13 06:27:22;;;;;;;9.55;4.93;;;;;;;12.18;70.19;102580.78;5002759;28;20060;-60
2021/12/13 06:30:03;;;;;;;10.43;5.63;;;;;;;12.16;70.34;102584.16;5011791;28;20049;-60
2021/12/13 06:32:31;;;;;;;9.80;5.57;;;;;;;12.11;70.66;102581.41;5011177;28;20054;-60
2021/12/13 06:34:59;;;;;;;10.80;6.15;;;;;;;12.05;71.10;102572.47;5008973;28;20049;-59
2021/12/13 06:37:34;;;;;;;13.30;6.10;;;;;;;12.05;71.08;102575.06;5014264;28;20036;-62
2021/12/13 06:40:19;;;;;;;10.77;7.10;;;;;;;12.03;71.27;102576.75;5009729;28;21072;-59
2021/12/13 06:42:44;;;;;;;11.18;6.72;;;;;;;12.05;71.04;102575.06;5020141;28;20160;-60
2021/12/13 06:45:26;;;;;;;12.70;7.18;;;;;;;12.05;71.03;102578.59;5016351;28;20517;-59
2021/12/13 06:47:54;;;;;;;11.50;7.43;;;;;;;12.04;71.31;102575.91;4996807;28;20172;-59
2021/12/13 06:50:32;;;;;;;13.05;8.00;;;;;;;11.97;71.20;102574.81;5018733;28;20083;-61
2021/12/13 06:53:12;;;;;;;14.13;7.55;;;;;;;11.94;71.79;102584.28;5011039;28;20309;-59
2021/12/13 06:55:37;;;;;;;15.95;8.23;;;;;;;11.93;72.06;102586.00;5009363;28;20064;-60
2021/12/13 06:58:12;;;;;;;13.18;8.77;;;;;;;11.85;72.50;102595.28;5017432;28;20068;-60
2021/12/13 07:00:38;;;;;;;12.23;8.60;;;;;;;11.91;72.56;102594.59;5016113;28;20045;-60
2021/12/13 07:03:10;;;;;;;20.67;9.40;;;;;;;11.88;72.31;102591.91;5013844;28;20499;-59
2021/12/13 07:05:51;;;;;;;16.00;9.20;;;;;;;11.86;72.41;102596.19;5014037;28;20098;-60
2021/12/13 07:08:24;;;;;;;18.60;9.63;;;;;;;11.86;72.47;102594.44;5013172;28;20040;-60
2021/12/13 07:10:53;;;;;;;19.50;10.10;;;;;;;11.82;72.59;102599.53;5016635;28;20057;-59
2021/12/13 07:14:00;;;;;;;16.85;9.95;;;;;;;11.83;72.84;102610.03;5018918;28;20067;-59
2021/12/13 07:16:32;;;;;;;19.08;10.75;;;;;;;11.85;72.65;102604.84;4958153;28;20106;-61
2021/12/13 07:19:22;;;;;;;21.52;11.20;;;;;;;11.90;72.46;102608.50;5016850;28;20037;-60
2021/12/13 07:22:03;;;;;;;20.65;11.30;;;;;;;11.85;72.55;102615.28;5012977;28;20045;-60
2021/12/13 07:24:32;;;;;;;17.58;11.38;;;;;;;11.86;72.71;102612.75;5012474;28;21269;-60
2021/12/13 07:27:05;;;;;;;22.33;11.70;;;;;;;11.87;72.66;102622.38;5013231;28;20032;-59
2021/12/13 07:29:51;;;;;;;24.75;12.25;;;;;;;11.87;72.51;102618.88;4992808;28;20333;-60
2021/12/13 07:32:31;;;;;;;18.92;11.68;;;;;;;11.81;72.90;102624.75;5010280;28;20428;-60
2021/12/13 07:35:12;;;;;;;19.83;11.40;;;;;;;11.74;73.00;102626.25;5015379;28;20057;-60
2021/12/13 07:37:39;;;;;;;21.80;12.00;;;;;;;11.77;72.74;102630.72;5010095;28;20069;-60
2021/12/13 07:40:23;;;;;;;21.13;11.70;;;;;;;11.79;72.92;102634.25;5015174;28;20291;-59
2021/12/13 07:43:03;;;;;;;19.60;12.05;;;;;;;11.80;72.86;102643.88;5014381;28;20049;-59
2021/12/13 07:45:40;;;;;;;19.88;11.57;;;;;;;11.79;72.90;102640.38;5003700;28;20260;-60
2021/12/13 07:48:12;;;;;;;20.52;11.70;;;;;;;11.83;72.89;102636.19;5016132;28;20352;-60
2021/12/13 07:50:39;;;;;;;20.35;12.10;;;;;;;11.89;72.41;102635.50;5009158;28;20110;-60
2021/12/13 07:53:09;;;;;;;21.13;11.57;;;;;;;11.93;72.46;102632.16;5016649;28;20135;-60
2021/12/13 07:55:41;;;;;;;21.60;11.82;;;;;;;11.89;72.40;102639.00;5013354;28;20025;-60
2021/12/13 07:58:06;;;;;;;22.98;12.27;;;;;;;11.93;72.56;102637.38;5015193;28;20049;-60
2021/12/13 08:00:38;;;;;;;21.95;11.68;;;;;;;11.92;72.39;102631.25;5016463;28;20523;-59
2021/12/13 08:03:15;;;;;;;22.27;11.68;;;;;;;11.89;72.31;102631.16;5002482;28;20044;-60
2021/12/13 08:05:50;;;;;;;22.48;11.63;;;;;;;11.90;72.57;102632.91;5010288;28;20041;-59
2021/12/13 08:08:17;;;;;;;;;;;;;;;11.92;72.46;102632.97;5017478;28;20060;-59
2021/12/13 08:10:43;;;;;;;20.52;10.98;;;;;;;11.94;72.39;102634.81;5012292;28;20780;-60
2021/12/13 08:13:19;;;;;;;19.73;11.43;;;;;;;11.93;72.28;102632.16;5015667;28;20032;-60
2021/12/13 08:15:52;;;;;;;21.08;11.40;;;;;;;11.99;72.17;102637.59;5000776;28;20436;-59
2021/12/13 08:18:40;;;;;;;18.58;11.05;;;;;;;11.93;72.02;102635.66;5008964;28;21353;-60
2021/12/13 08:21:07;;;;;;;20.42;11.20;;;;;;;11.90;72.38;102635.53;5015699;28;20317;-59
2021/12/13 08:23:42;;;;;;;20.75;11.10;;;;;;;11.97;71.79;102634.91;5006555;28;20123;-60
2021/12/13 08:26:10;;;;;;;25.98;11.57;;;;;;;11.97;72.04;102628.81;5023684;28;20041;-60
2021/12/13 08:28:38;;;;;;;22.52;11.00;;;;;;;11.97;71.90;102631.41;5008378;28;20606;-60
2021/12/13 08:31:06;;;;;;;16.80;10.75;;;;;;;11.97;71.77;102628.81;5015809;28;20048;-60
2021/12/13 08:33:42;;;;;;;22.42;10.90;;;;;;;12.00;71.87;102634.16;5009020;28;20468;-59
2021/12/13 08:36:20;;;;;;;20.65;10.25;;;;;;;11.96;71.50;102627.91;5007618;28;20049;-59
2021/12/13 08:38:45;;;;;;;20.50;10.63;;;;;;;12.08;71.42;102632.69;5016621;28;20448;-59
2021/12/13 08:41:22;;;;;;;24.42;11.15;;;;;;;11.99;71.34;102635.00;5019553;28;20047;-60
2021/12/13 08:43:48;;;;;;;19.27;10.23;;;;;;;12.06;71.40;102643.09;5005752;28;20049;-59
2021/12/13 08:46:41;;;;;;;21.85;10.95;;;;;;;12.08;71.02;102649.25;5013488;28;20052;-60
2021/12/13 08:49:18;;;;;;;20.65;10.70;;;;;;;12.12;71.14;102651.16;5020966;28;20051;-60
2021/12/13 08:51:58;;;;;;;17.98;10.20;;;;;;;12.18;70.68;102656.63;5010438;28;20051;-60
2021/12/13 08:55:01;;;;;;;18.33;10.90;;;;;;;12.32;70.63;102670.13;5015637;28;20045;-60
2021/12/13 08:58:04;;;;;;;19.48;9.70;;;;;;;12.34;70.35;102672.81;5003469;28;20056;-60
2021/12/13 09:00:50;;;;;;;16.77;10.48;;;;;;;12.37;70.25;102673.84;5012944;28;20145;-59
2021/12/13 09:03:37;;;;;;;18.48;10.55;;;;;;;12.36;70.28;102685.13;4993834;28;20036;-59
2021/12/13 09:06:11;;;;;;;18.92;10.38;;;;;;;12.39;70.43;102679.09;5014943;28;20720;-61
2021/12/13 09:08:41;;;;;;;17.80;10.63;;;;;;;12.43;70.80;102692.34;5006047;28;20428;-59
2021/12/13 09:11:35;;;;;;;17.40;10.38;;;;;;;12.45;70.55;102690.66;5015733;28;20314;-59
2021/12/13 09:14:27;;;;;;;19.67;10.75;;;;;;;12.46;70.60;102699.41;5019989;28;20044;-60
2021/12/13 09:17:26;;;;;;;24.08;10.43;;;;;;;12.55;70.38;102704.97;4999063;28;20186;-58
2021/12/13 09:19:56;;;;;;;19.20;10.00;;;;;;;12.58;69.96;102702.44;5020040;28;20048;-59
2021/12/13 09:22:31;;;;;;;23.65;10.80;;;;;;;12.59;70.32;102718.19;5005317;28;20101;-61
2021/12/13 09:24:56;;;;;;;;;;;;;;;12.56;69.89;102720.69;5011463;28;20053;-59
2021/12/13 09:27:36;;;;;;;20.38;9.65;;;;;;;12.64;70.06;102713.13;5016602;28;20599;-60
2021/12/13 09:30:28;;;;;;;19.50;9.77;;;;;;;12.63;69.80;102719.19;4991787;28;20049;-59
2021/12/13 09:33:00;;;;;;;17.38;9.60;;;;;;;12.66;69.45;102711.44;5017146;28;20091;-60
2021/12/13 09:35:37;;;;;;;13.95;9.02;;;;;;;12.66;69.38;102727.16;5006675;28;20041;-61
2021/12/13 09:38:21;;;;;;;14.98;9.07;;;;;;;12.78;69.17;102729.28;5016661;28;20135;-60
2021/12/13 09:41:10;;;;;;;15.77;8.77;;;;;;;12.86;68.90;102730.44;5003277;28;20071;-59
2021/12/13 09:44:00;;;;;;;16.23;8.80;;;;;;;12.96;68.64;102735.13;5011599;28;20080;-59
2021/12/13 09:46:37;;;;;;;16.27;9.18;;;;;;;12.92;68.40;102728.94;5013060;28;20377;-61
2021/12/13 09:49:10;;;;;;;19.25;9.20;;;;;;;13.02;67.98;102727.50;5014818;28;20392;-60
2021/12/13 09:51:41;;;;;;;16.38;8.93;;;;;;;13.05;67.84;102730.22;4981837;28;20025;-59
2021/12/13 09:54:09;;;;;;;17.77;9.07;;;;;;;13.05;67.68;102738.06;5016308;28;20491;-61
2021/12/13 09:56:39;;;;;;;18.98;10.10;;;;;;;13.00;67.53;102737.91;5011028;28;20500;-60
2021/12/13 09:59:20;;;;;;;16.27;9.05;;;;;;;13.08;67.64;102742.50;5016026;28;21208;-59
2021/12/13 10:01:46;;;;;;;18.13;9.48;;;;;;;13.13;68.02;102740.94;5010068;28;20041;-59
2021/12/13 10:04:23;;;;;;;18.27;9.27;;;;;;;13.18;67.36;102737.66;5016748;28;20072;-59
2021/12/13 10:06:55;;;;;;;18.08;9.43;;;;;;;13.17;67.07;102738.50;4992233;28;20049;-59
2021/12/13 10:09:29;;;;;;;19.52;9.30;;;;;;;13.26;67.53;102737.91;5008887;28;20390;-60
2021/12/13 10:12:20;;;;;;;18.55;9.18;;;;;;;13.25;67.28;102733.50;5013828;28;20037;-60
2021/12/13 10:14:57;;;;;;;20.30;8.90;;;;;;;13.26;66.88;102743.13;5016747;28;20053;-60
2021/12/13 10:17:27;;;;;;;17.45;8.80;;;;;;;13.18;67.80;102742.00;4993550;28;20037;-60
2021/12/13 10:19:57;;;;;;;17.05;9.15;;;;;;;13.28;67.40;102742.34;5009462;28;20041;-60
2021/12/13 10:22:27;;;;;;;19.73;9.27;;;;;;;13.31;66.41;102742.44;5007870;28;20429;-60
2021/12/13 10:25:29;;;;;;;17.63;9.23;;;;;;;13.31;67.87;102738.94;5007156;28;20039;-59
2021/12/13 10:27:55;;;;;;;15.10;8.82;;;;;;;13.32;66.64;102736.38;5012319;28;20048;-60
2021/12/13 10:30:35;;;;;;;16.10;8.63;;;;;;;13.38;67.32;102735.66;4991234;28;20232;-59
2021/12/13 10:33:03;;;;;;;16.52;9.57;;;;;;;13.39;66.97;102738.34;5008476;28;20347;-60
2021/12/13 10:35:33;;;;;;;16.08;8.98;;;;;;;13.38;66.65;102733.94;5007889;28;20748;-59
2021/12/13 10:38:07;;;;;;;14.73;8.93;;;;;;;13.47;66.80;102735.06;5013665;28;20427;-60
2021/12/13 10:40:44;;;;;;;19.70;9.40;;;;;;;13.52;66.17;102731.75;5008496;28;20650;-59
2021/12/13 10:43:17;;;;;;;19.65;9.77;;;;;;;13.56;66.92;102733.63;5014605;28;20499;-59
2021/12/13 10:45:47;;;;;;;18.00;10.32;;;;;;;13.55;66.67;102733.56;5009342;28;20083;-60
2021/12/13 10:48:15;;;;;;;19.45;10.98;;;;;;;13.51;67.25;102734.31;5008446;28;20041;-60
2021/12/13 10:50:51;;;;;;;19.10;10.70;;;;;;;13.56;66.75;102735.34;4998143;28;20037;-59
2021/12/13 10:53:21;;;;;;;18.55;10.77;;;;;;;13.67;66.85;102734.81;5009732;28;20165;-60
2021/12/13 10:55:52;;;;;;;23.42;11.10;;;;;;;13.69;66.72;102737.50;4997920;28;20427;-59
2021/12/13 10:58:20;;;;;;;21.30;11.02;;;;;;;13.56;67.18;102740.59;5021595;28;20050;-60
2021/12/13 11:00:50;;;;;;;20.40;11.50;;;;;;;13.67;66.60;102737.44;4999394;28;20039;-61
2021/12/13 11:03:19;;;;;;;20.40;10.85;;;;;;;13.75;66.29;102732.44;5021217;28;20052;-59
2021/12/13 11:05:45;;;;;;;20.98;11.48;;;;;;;13.77;66.36;102736.00;4987319;28;21157;-59
2021/12/13 11:08:13;;;;;;;24.88;10.95;;;;;;;13.79;66.57;102729.94;4998716;28;20040;-60
2021/12/13 11:10:50;;;;;;;20.00;10.88;;;;;;;13.78;66.25;102724.69;5014920;28;20036;-59
2021/12/13 11:13:15;;;;;;;19.67;11.32;;;;;;;13.71;66.77;102727.97;5012767;28;20041;-60
2021/12/13 11:15:45;;;;;;;22.45;11.88;;;;;;;13.68;66.52;102725.22;5010509;28;21715;-61
2021/12/13 11:18:26;;;;;;;22.58;11.82;;;;;;;13.68;66.81;102731.38;5018279;28;20486;-61
2021/12/13 11:20:52;;;;;;;20.98;11.95;;;;;;;13.73;66.70;102734.13;5018870;28;20339;-59
2021/12/13 11:23:21;;;;;;;22.38;11.80;;;;;;;13.65;67.02;102728.66;5003198;28;20131;-61
2021/12/13 11:25:51;;;;;;;20.75;11.88;;;;;;;13.66;66.35;102730.41;5012600;28;20041;-59
2021/12/13 11:28:17;;;;;;;22.17;11.35;;;;;;;13.68;66.56;102727.84;5005167;28;20088;-60
2021/12/13 11:30:46;;;;;;;20.67;11.57;;;;;;;13.64;66.70;102724.28;5019948;28;20489;-59
2021/12/13 11:33:20;;;;;;;23.27;11.43;;;;;;;13.59;66.74;102730.22;5018809;28;20976;-59
2021/12/13 11:35:52;;;;;;;24.35;11.93;;;;;;;13.56;67.24;102733.63;4990405;28;20632;-59
2021/12/13 11:38:38;;;;;;;21.23;11.20;;;;;;;13.57;66.75;102731.88;5009671;28;20050;-61
2021/12/13 11:41:24;;;;;;;19.10;10.68;;;;;;;13.66;66.94;102732.19;5013783;28;20037;-61
2021/12/13 11:44:40;;;;;;;22.45;11.43;;;;;;;13.57;67.33;102729.25;5016809;28;20045;-59
2021/12/13 11:47:24;;;;;;;24.75;11.52;;;;;;;13.46;67.71;102721.09;4968665;28;20131;-59
2021/12/13 11:50:24;;;;;;;22.50;11.85;;;;;;;13.52;67.60;102730.88;5012129;28;20033;-59
2021/12/13 11:53:36;;;;;;;20.48;11.00;;;;;;;13.53;67.13;102725.69;4985701;28;20354;-59
2021/12/13 11:56:37;;;;;;;21.63;11.52;;;;;;;13.53;67.52;102730.91;4938658;28;20165;-60
2021/12/13 11:59:10;;;;;;;19.23;11.00;;;;;;;13.57;67.11;102726.66;4970698;28;20128;-60